createdAt,value
2022-08-08T00:00:51.885Z,989.7
2022-08-08T00:02:31.810Z,989.7
2022-08-08T00:04:16.157Z,989.7
2022-08-08T00:06:16.696Z,989.7
2022-08-08T00:08:18.163Z,989.7
2022-08-08T00:10:22.125Z,989.7
2022-08-08T00:12:23.698Z,989.7
2022-08-08T00:14:47.944Z,989.7
2022-08-08T00:16:24.261Z,989.7
2022-08-08T00:18:24.705Z,989.6
2022-08-08T00:20:26.400Z,989.6
2022-08-08T00:22:28.758Z,989.7
2022-08-08T00:24:30.305Z,989.6
2022-08-08T00:26:31.353Z,989.7
2022-08-08T00:28:34.697Z,989.7
2022-08-08T00:30:33.972Z,989.7
2022-08-08T00:32:36.224Z,989.7
2022-08-08T00:34:36.812Z,989.6
2022-08-08T00:36:38.064Z,989.7
2022-08-08T00:38:44.221Z,989.7
2022-08-08T00:41:08.216Z,989.7
2022-08-08T00:42:42.850Z,989.7
2022-08-08T00:44:44.393Z,989.6
2022-08-08T00:46:56.190Z,989.6
2022-08-08T00:48:55.172Z,989.6
2022-08-08T00:50:52.535Z,989.5
2022-08-08T00:52:51.558Z,989.7
2022-08-08T00:54:52.309Z,989.6
2022-08-08T00:58:55.458Z,989.6
2022-08-08T01:00:56.638Z,989.6
2022-08-08T01:04:00.458Z,989.6
2022-08-08T01:04:58.861Z,989.5
2022-08-08T01:07:01.582Z,989.6
2022-08-08T01:09:01.324Z,989.6
2022-08-08T01:11:02.596Z,989.5
2022-08-08T01:15:05.800Z,989.6
2022-08-08T01:17:06.280Z,989.6
2022-08-08T01:19:11.590Z,989.5
2022-08-08T01:21:09.272Z,989.5
2022-08-08T01:23:15.962Z,989.5
2022-08-08T01:25:14.274Z,989.6
2022-08-08T01:27:16.034Z,989.6
2022-08-08T01:29:14.967Z,989.5
2022-08-08T01:31:34.254Z,989.6
2022-08-08T01:33:23.630Z,989.7
2022-08-08T01:35:19.015Z,989.6
2022-08-08T01:37:21.588Z,989.6
2022-08-08T01:39:23.839Z,989.6
2022-08-08T01:41:23.444Z,989.6
2022-08-08T01:43:24.680Z,989.6
2022-08-08T01:45:25.678Z,989.6
2022-08-08T01:48:15.781Z,989.7
2022-08-08T01:50:12.542Z,989.6
2022-08-08T01:52:41.801Z,989.7
2022-08-08T01:55:18.435Z,989.6
2022-08-08T01:56:30.120Z,989.7
2022-08-08T01:58:19.118Z,989.7
2022-08-08T02:00:19.192Z,989.6
2022-08-08T02:02:39.616Z,989.6
2022-08-08T02:04:22.302Z,989.7
2022-08-08T02:06:32.031Z,989.7
2022-08-08T02:08:25.354Z,989.7
2022-08-08T02:10:29.702Z,989.7
2022-08-08T02:12:28.015Z,989.6
2022-08-08T02:14:29.358Z,989.6
2022-08-08T02:16:31.090Z,989.6
2022-08-08T02:18:32.818Z,989.6
2022-08-08T02:21:00.215Z,989.7
2022-08-08T02:22:45.746Z,989.6
2022-08-08T02:24:36.947Z,989.6
2022-08-08T02:26:38.171Z,989.6
2022-08-08T02:28:39.229Z,989.6
2022-08-08T02:30:49.922Z,989.6
2022-08-08T02:35:06.625Z,989.6
2022-08-08T02:36:45.620Z,989.7
2022-08-08T02:38:49.039Z,989.6
2022-08-08T02:40:49.842Z,989.6
2022-08-08T02:43:00.773Z,989.8
2022-08-08T02:44:56.992Z,989.7
2022-08-08T02:46:51.698Z,989.8
2022-08-08T02:48:52.668Z,989.8
2022-08-08T02:50:55.908Z,989.7
2022-08-08T02:52:55.259Z,989.7
2022-08-08T02:54:56.745Z,989.8
2022-08-08T02:56:58.447Z,989.8
2022-08-08T02:59:00.348Z,989.8
2022-08-08T03:01:01.439Z,989.7
2022-08-08T03:03:03.173Z,989.7
2022-08-08T03:05:09.068Z,989.7
2022-08-08T03:07:07.081Z,989.7
2022-08-08T03:09:07.579Z,989.7
2022-08-08T03:11:13.686Z,989.7
2022-08-08T03:13:33.679Z,989.7
2022-08-08T03:15:54.746Z,989.8
2022-08-08T03:17:12.320Z,989.8
2022-08-08T03:19:13.795Z,989.9
2022-08-08T03:21:15.555Z,989.9
2022-08-08T03:23:17.619Z,989.9
2022-08-08T03:25:18.342Z,989.9
2022-08-08T03:27:18.853Z,989.9
2022-08-08T03:29:20.758Z,989.9
2022-08-08T03:31:22.817Z,989.9
2022-08-08T03:33:54.353Z,989.9
2022-08-08T03:35:24.676Z,989.9
2022-08-08T03:38:00.344Z,990
2022-08-08T03:39:28.425Z,990
2022-08-08T03:43:31.603Z,989.9
2022-08-08T03:46:03.702Z,990
2022-08-08T03:47:39.582Z,990
2022-08-08T03:49:59.290Z,990
2022-08-08T03:51:40.730Z,990
2022-08-08T03:53:38.239Z,990
2022-08-08T03:55:55.442Z,990
2022-08-08T03:58:09.929Z,990
2022-08-08T03:59:57.314Z,990.1
2022-08-08T04:02:02.322Z,990.1
2022-08-08T04:03:56.934Z,990.2
2022-08-08T04:05:47.384Z,990.2
2022-08-08T04:07:48.461Z,990.2
2022-08-08T04:09:59.476Z,990.2
2022-08-08T04:11:58.507Z,990.1
2022-08-08T04:14:02.796Z,990.1
2022-08-08T04:15:55.257Z,990
2022-08-08T04:17:58.669Z,990.1
2022-08-08T04:19:57.242Z,990.1
2022-08-08T04:21:58.782Z,990.2
2022-08-08T04:24:00.512Z,990.1
2022-08-08T04:26:05.361Z,990.3
2022-08-08T04:28:35.738Z,990.2
2022-08-08T04:32:06.779Z,990.1
2022-08-08T04:34:07.213Z,990.1
2022-08-08T04:36:08.995Z,990.2
2022-08-08T04:38:10.913Z,990.3
2022-08-08T04:40:12.828Z,990.3
2022-08-08T04:42:15.670Z,990.3
2022-08-08T04:44:15.285Z,990.4
2022-08-08T04:46:16.869Z,990.3
2022-08-08T04:48:21.683Z,990.5
2022-08-08T04:50:24.567Z,990.5
2022-08-08T04:52:25.291Z,990.5
2022-08-08T04:54:36.739Z,990.4
2022-08-08T04:56:24.257Z,990.4
2022-08-08T04:58:25.990Z,990.5
2022-08-08T05:00:27.714Z,990.5
2022-08-08T05:04:30.982Z,990.6
2022-08-08T05:06:32.556Z,990.5
2022-08-08T05:08:33.871Z,990.5
2022-08-08T05:10:35.058Z,990.5
2022-08-08T05:12:37.199Z,990.6
2022-08-08T05:14:37.847Z,990.6
2022-08-08T05:16:48.647Z,990.6
2022-08-08T05:18:40.716Z,990.6
2022-08-08T05:20:48.577Z,990.6
2022-08-08T05:22:42.577Z,990.5
2022-08-08T05:24:48.038Z,990.5
2022-08-08T05:26:44.647Z,990.6
2022-08-08T05:28:56.996Z,990.6
2022-08-08T05:30:47.798Z,990.6
2022-08-08T05:32:49.601Z,990.7
2022-08-08T05:34:51.240Z,990.6
2022-08-08T05:36:52.431Z,990.6
2022-08-08T05:38:53.599Z,990.7
2022-08-08T05:40:57.983Z,990.7
2022-08-08T05:42:56.294Z,990.7
2022-08-08T05:45:00.496Z,990.6
2022-08-08T05:47:02.858Z,990.7
2022-08-08T05:49:00.134Z,990.7
2022-08-08T05:51:13.129Z,990.7
2022-08-08T05:53:23.237Z,990.7
2022-08-08T05:55:07.376Z,990.7
2022-08-08T05:57:04.838Z,990.7
2022-08-08T05:59:05.948Z,990.8
2022-08-08T06:01:06.877Z,990.8
2022-08-08T06:03:08.216Z,990.7
2022-08-08T06:05:24.603Z,990.8
2022-08-08T06:07:10.581Z,990.8
2022-08-08T06:09:41.410Z,990.8
2022-08-08T06:11:13.292Z,990.8
2022-08-08T06:13:13.693Z,990.8
2022-08-08T06:15:16.171Z,990.8
2022-08-08T06:17:19.349Z,990.8
2022-08-08T06:19:17.857Z,990.9
2022-08-08T06:21:28.768Z,990.8
2022-08-08T06:23:21.468Z,991
2022-08-08T06:25:33.067Z,990.9
2022-08-08T06:27:23.524Z,990.9
2022-08-08T06:29:27.083Z,990.9
2022-08-08T06:31:32.078Z,991
2022-08-08T06:33:36.794Z,990.9
2022-08-08T06:36:00.743Z,991
2022-08-08T06:37:36.803Z,991
2022-08-08T06:39:33.204Z,990.9
2022-08-08T06:41:33.301Z,990.9
2022-08-08T06:45:37.101Z,991
2022-08-08T06:47:52.112Z,990.9
2022-08-08T06:49:56.056Z,990.9
2022-08-08T06:51:46.835Z,990.9
2022-08-08T06:53:50.555Z,990.9
2022-08-08T06:55:47.035Z,990.9
2022-08-08T06:57:54.975Z,990.9
2022-08-08T07:00:01.703Z,990.9
2022-08-08T07:02:18.299Z,990.9
2022-08-08T07:03:52.806Z,990.8
2022-08-08T07:06:01.612Z,990.9
2022-08-08T07:07:52.571Z,990.9
2022-08-08T07:09:56.734Z,990.9
2022-08-08T07:11:56.098Z,990.9
2022-08-08T07:14:00.253Z,990.9
2022-08-08T07:16:04.077Z,991
2022-08-08T07:18:02.221Z,990.9
2022-08-08T07:20:01.186Z,991
2022-08-08T07:22:05.266Z,990.9
2022-08-08T07:24:04.653Z,991
2022-08-08T07:28:07.615Z,991
2022-08-08T07:30:12.078Z,990.9
2022-08-08T07:32:08.695Z,990.9
2022-08-08T07:34:09.809Z,991
2022-08-08T07:36:11.141Z,991
2022-08-08T07:38:18.588Z,991
2022-08-08T07:40:13.269Z,991.1
2022-08-08T07:42:14.014Z,991
2022-08-08T07:44:16.032Z,991.1
2022-08-08T07:46:18.233Z,991.1
2022-08-08T07:48:17.474Z,991
2022-08-08T07:50:22.054Z,991.1
2022-08-08T07:52:23.288Z,991.1
2022-08-08T07:54:24.214Z,991.1
2022-08-08T07:56:35.859Z,991.1
2022-08-08T07:58:24.791Z,991.1
2022-08-08T08:00:25.661Z,991.1
2022-08-08T08:04:27.358Z,991.2
2022-08-08T08:06:29.002Z,991.1
2022-08-08T08:10:33.112Z,991.2
2022-08-08T08:12:35.819Z,991.1
2022-08-08T08:14:34.418Z,991.2
2022-08-08T08:16:36.680Z,991.2
2022-08-08T08:18:40.967Z,991.2
2022-08-08T08:20:38.501Z,991.3
2022-08-08T08:22:39.887Z,991.1
2022-08-08T08:24:42.878Z,991.1
2022-08-08T08:26:47.113Z,991.2
2022-08-08T08:28:43.863Z,991.2
2022-08-08T08:30:45.144Z,991.2
2022-08-08T08:31:28.432Z,991.2
2022-08-08T08:33:29.538Z,991.1
2022-08-08T08:36:18.297Z,991.2
2022-08-08T08:37:32.641Z,991.2
2022-08-08T08:39:39.089Z,991.1
2022-08-08T08:41:35.798Z,991.2
2022-08-08T08:43:37.485Z,991.1
2022-08-08T08:45:38.980Z,991.1
2022-08-08T08:47:43.742Z,991.1
2022-08-08T08:49:42.875Z,991.1
2022-08-08T08:51:50.988Z,991.2
2022-08-08T08:53:55.746Z,991.1
2022-08-08T08:55:45.080Z,991.2
2022-08-08T08:57:46.063Z,991.2
2022-08-08T08:59:59.879Z,991.2
2022-08-08T09:01:48.166Z,991.1
2022-08-08T09:03:50.608Z,991.2
2022-08-08T09:05:54.107Z,991.1
2022-08-08T09:07:52.037Z,991.1
2022-08-08T09:09:55.022Z,991.1
2022-08-08T09:12:01.911Z,991.1
2022-08-08T09:13:55.357Z,991.2
2022-08-08T09:16:02.181Z,991.1
2022-08-08T09:17:58.801Z,991.2
2022-08-08T09:21:54.800Z,991
2022-08-08T09:22:05.767Z,991.1
2022-08-08T09:24:02.263Z,991.1
2022-08-08T09:26:03.309Z,991.1
2022-08-08T09:30:05.801Z,991.1
2022-08-08T09:32:12.073Z,991.1
2022-08-08T09:34:15.596Z,991.1
2022-08-08T09:36:10.071Z,991.1
2022-08-08T09:40:12.650Z,991
2022-08-08T09:42:14.847Z,991.1
2022-08-08T09:44:18.946Z,991
2022-08-08T09:46:17.026Z,991.1
2022-08-08T09:48:21.216Z,991.1
2022-08-08T09:50:19.650Z,991.1
2022-08-08T09:52:46.792Z,991
2022-08-08T09:54:36.791Z,991.1
2022-08-08T09:56:25.243Z,991
2022-08-08T09:58:26.226Z,991.1
2022-08-08T10:00:38.158Z,991.2
2022-08-08T10:02:28.663Z,991.1
2022-08-08T10:04:35.473Z,991
2022-08-08T10:06:29.898Z,991
2022-08-08T10:08:38.788Z,991.1
2022-08-08T10:10:32.757Z,991
2022-08-08T10:12:35.878Z,991.1
2022-08-08T10:14:38.549Z,990.9
2022-08-08T10:16:36.791Z,991.1
2022-08-08T10:18:38.306Z,991
2022-08-08T10:20:40.391Z,991
2022-08-08T10:22:54.772Z,991.1
2022-08-08T10:24:42.192Z,991
2022-08-08T10:26:52.504Z,990.9
2022-08-08T10:28:44.236Z,990.8
2022-08-08T10:30:57.253Z,990.8
2022-08-08T10:32:48.501Z,990.9
2022-08-08T10:34:48.125Z,990.9
2022-08-08T10:36:49.037Z,990.8
2022-08-08T10:38:50.241Z,990.8
2022-08-08T10:40:52.067Z,990.9
2022-08-08T10:42:53.059Z,990.8
2022-08-08T10:44:54.730Z,990.7
2022-08-08T10:46:56.438Z,990.8
2022-08-08T10:48:59.060Z,990.8
2022-08-08T10:50:58.930Z,990.7
2022-08-08T10:53:00.616Z,990.7
2022-08-08T10:55:05.299Z,990.7
2022-08-08T10:57:03.646Z,990.8
2022-08-08T10:59:04.425Z,990.7
2022-08-08T11:01:08.605Z,990.7
2022-08-08T11:03:07.244Z,990.7
2022-08-08T11:05:14.838Z,990.7
2022-08-08T11:07:13.892Z,990.7
2022-08-08T11:11:31.864Z,990.6
2022-08-08T11:13:28.879Z,990.6
2022-08-08T11:15:13.829Z,990.6
2022-08-08T11:17:15.622Z,990.6
2022-08-08T11:21:19.437Z,990.7
2022-08-08T11:23:18.536Z,990.7
2022-08-08T11:25:20.291Z,990.7
2022-08-08T11:27:44.461Z,990.8
2022-08-08T11:29:22.940Z,990.7
2022-08-08T11:31:23.915Z,990.7
2022-08-08T11:33:51.054Z,990.7
2022-08-08T11:35:33.729Z,990.6
2022-08-08T11:38:07.364Z,990.7
2022-08-08T11:39:37.028Z,990.6
2022-08-08T11:43:38.728Z,990.6
2022-08-08T11:45:43.785Z,990.5
2022-08-08T11:47:39.167Z,990.6
2022-08-08T11:49:35.803Z,990.6
2022-08-08T11:51:39.459Z,990.4
2022-08-08T11:53:42.685Z,990.4
2022-08-08T11:55:39.770Z,990.4
2022-08-08T11:57:40.774Z,990.4
2022-08-08T11:59:58.931Z,990.5
2022-08-08T12:01:43.626Z,990.5
2022-08-08T12:03:45.088Z,990.4
2022-08-08T12:05:46.501Z,990.5
2022-08-08T12:07:49.613Z,990.4
2022-08-08T12:09:57.247Z,990.4
2022-08-08T12:11:50.646Z,990.4
2022-08-08T12:14:03.309Z,990.3
2022-08-08T12:15:53.040Z,990.3
2022-08-08T12:17:53.884Z,990.3
2022-08-08T12:19:55.096Z,990.4
2022-08-08T12:21:58.816Z,990.4
2022-08-08T12:23:58.243Z,990.4
2022-08-08T12:25:58.432Z,990.3
2022-08-08T12:27:59.325Z,990.3
2022-08-08T12:30:02.002Z,990.3
2022-08-08T12:32:02.589Z,990.4
2022-08-08T12:34:03.360Z,990.3
2022-08-08T12:36:04.777Z,990.2
2022-08-08T12:38:05.969Z,990.3
2022-08-08T12:40:07.748Z,990.3
2022-08-08T12:42:08.689Z,990.3
2022-08-08T12:44:09.597Z,990.3
2022-08-08T12:46:10.560Z,990.3
2022-08-08T12:48:18.356Z,990.3
2022-08-08T12:50:14.967Z,990.2
2022-08-08T12:52:28.530Z,990.3
2022-08-08T12:54:19.453Z,990.3
2022-08-08T12:56:23.766Z,990.3
2022-08-08T12:58:19.588Z,990.2
2022-08-08T13:00:20.827Z,990.2
2022-08-08T13:02:21.901Z,990
2022-08-08T13:04:24.185Z,990.1
2022-08-08T13:08:33.052Z,990
2022-08-08T13:10:27.769Z,990.1
2022-08-08T13:12:28.916Z,990.2
2022-08-08T13:14:29.320Z,990.2
2022-08-08T13:16:30.827Z,990.1
2022-08-08T13:18:32.180Z,990.2
2022-08-08T13:20:33.218Z,990.1
2022-08-08T13:22:34.754Z,990.1
2022-08-08T13:24:38.493Z,990.1
2022-08-08T13:26:37.192Z,990.1
2022-08-08T13:28:41.459Z,990.1
2022-08-08T13:30:40.139Z,990.1
2022-08-08T13:32:40.970Z,990.1
2022-08-08T13:34:42.145Z,990
2022-08-08T13:36:44.555Z,990
2022-08-08T13:38:44.120Z,990
2022-08-08T13:40:46.234Z,989.9
2022-08-08T13:42:47.033Z,989.9
2022-08-08T13:44:47.804Z,989.9
2022-08-08T13:46:49.472Z,990
2022-08-08T13:49:11.123Z,989.9
2022-08-08T13:50:55.377Z,990
2022-08-08T13:52:54.822Z,989.8
2022-08-08T13:54:53.633Z,989.9
2022-08-08T13:56:59.918Z,989.9
2022-08-08T13:58:55.981Z,990
2022-08-08T14:00:57.039Z,990
2022-08-08T14:04:59.438Z,989.9
2022-08-08T14:06:59.875Z,989.9
2022-08-08T14:09:18.710Z,989.7
2022-08-08T14:11:02.007Z,989.8
2022-08-08T14:13:03.085Z,989.8
2022-08-08T14:15:04.265Z,989.8
2022-08-08T14:17:05.239Z,989.8
2022-08-08T14:19:09.445Z,989.8
2022-08-08T14:21:07.813Z,989.8
2022-08-08T14:23:10.131Z,989.9
2022-08-08T14:25:09.308Z,989.9
2022-08-08T14:27:10.796Z,989.8
2022-08-08T14:29:26.879Z,989.8
2022-08-08T14:31:20.580Z,989.7
2022-08-08T14:33:15.336Z,989.8
2022-08-08T14:35:16.318Z,989.9
2022-08-08T14:37:17.090Z,989.8
2022-08-08T14:39:18.021Z,989.7
2022-08-08T14:41:43.317Z,989.8
2022-08-08T14:43:22.392Z,989.8
2022-08-08T14:45:26.749Z,989.8
2022-08-08T14:49:31.998Z,989.8
2022-08-08T14:51:25.551Z,989.7
2022-08-08T14:53:26.585Z,989.7
2022-08-08T14:55:35.674Z,989.7
2022-08-08T14:58:00.805Z,989.7
2022-08-08T14:59:31.869Z,989.7
2022-08-08T15:01:37.203Z,989.7
2022-08-08T15:05:34.129Z,989.8
2022-08-08T15:07:37.067Z,989.7
2022-08-08T15:09:35.830Z,989.7
2022-08-08T15:11:43.057Z,989.6
2022-08-08T15:13:40.396Z,989.6
2022-08-08T15:16:01.032Z,989.7
2022-08-08T15:16:50.806Z,989.7
2022-08-08T15:18:51.965Z,989.7
2022-08-08T15:20:52.694Z,989.6
2022-08-08T15:22:53.805Z,989.6
2022-08-08T15:24:55.558Z,989.6
2022-08-08T15:26:56.738Z,989.7
2022-08-08T15:28:58.038Z,989.7
2022-08-08T15:30:59.693Z,989.7
2022-08-08T15:33:00.805Z,989.7
2022-08-08T15:35:01.766Z,989.6
2022-08-08T15:37:03.592Z,989.6
2022-08-08T15:39:04.897Z,989.6
2022-08-08T15:41:05.690Z,989.6
2022-08-08T15:43:18.967Z,989.7
2022-08-08T15:45:07.987Z,989.6
2022-08-08T15:47:15.554Z,989.7
2022-08-08T15:49:10.139Z,989.7
2022-08-08T15:51:11.322Z,989.6
2022-08-08T15:53:12.150Z,989.7
2022-08-08T15:55:13.721Z,989.7
2022-08-08T15:57:15.018Z,989.6
2022-08-08T15:59:15.915Z,989.6
2022-08-08T16:03:18.396Z,989.6
2022-08-08T16:05:19.749Z,989.6
2022-08-08T16:07:20.878Z,989.6
2022-08-08T16:13:01.692Z,989.6
2022-08-08T16:13:06.860Z,989.5
2022-08-08T16:13:31.078Z,989.6
2022-08-08T16:15:26.580Z,989.5
2022-08-08T16:17:38.991Z,989.5
2022-08-08T16:19:28.950Z,989.5
2022-08-08T16:21:29.823Z,989.5
2022-08-08T16:23:31.386Z,989.6
2022-08-08T16:25:45.978Z,989.6
2022-08-08T16:27:33.729Z,989.6
2022-08-08T16:29:37.593Z,989.6
2022-08-08T16:31:37.193Z,989.7
2022-08-08T16:35:38.710Z,989.6
2022-08-08T16:37:39.536Z,989.6
2022-08-08T16:40:00.178Z,989.5
2022-08-08T16:41:41.892Z,989.6
2022-08-08T16:43:49.386Z,989.6
2022-08-08T16:46:38.217Z,989.6
2022-08-08T16:47:45.141Z,989.5
2022-08-08T16:54:58.915Z,989.5
2022-08-08T16:54:58.959Z,989.5
2022-08-08T16:55:52.793Z,989.5
2022-08-08T16:58:13.476Z,989.6
2022-08-08T16:59:52.488Z,989.6
2022-08-08T17:01:52.624Z,989.6
2022-08-08T17:03:58.272Z,989.6
2022-08-08T17:05:54.513Z,989.6
2022-08-08T17:07:56.135Z,989.5
2022-08-08T17:09:58.069Z,989.5
2022-08-08T17:12:02.054Z,989.6
2022-08-08T17:14:00.856Z,989.5
2022-08-08T17:16:01.210Z,989.5
2022-08-08T17:18:04.458Z,989.6
2022-08-08T17:20:03.954Z,989.6
2022-08-08T17:22:05.518Z,989.5
2022-08-08T17:24:10.892Z,989.5
2022-08-08T17:26:08.564Z,989.6
2022-08-08T17:28:09.497Z,989.6
2022-08-08T17:30:13.614Z,989.6
2022-08-08T17:32:11.857Z,989.6
2022-08-08T17:34:38.464Z,989.7
2022-08-08T17:36:21.919Z,989.7
2022-08-08T17:38:16.641Z,989.7
2022-08-08T17:40:18.094Z,989.7
2022-08-08T17:42:19.558Z,989.7
2022-08-08T17:44:20.344Z,989.7
2022-08-08T17:46:21.737Z,989.8
2022-08-08T17:48:29.458Z,989.7
2022-08-08T17:50:23.829Z,989.8
2022-08-08T17:52:25.043Z,989.8
2022-08-08T17:54:28.938Z,989.7
2022-08-08T17:56:28.035Z,989.8
2022-08-08T17:58:29.539Z,989.8
2022-08-08T18:00:31.507Z,989.9
2022-08-08T18:02:32.950Z,989.8
2022-08-08T18:04:34.123Z,989.9
2022-08-08T18:08:37.039Z,989.9
2022-08-08T18:10:38.515Z,989.9
2022-08-08T18:12:39.543Z,989.9
2022-08-08T18:14:40.862Z,989.9
2022-08-08T18:16:42.594Z,989.9
2022-08-08T18:18:45.645Z,989.9
2022-08-08T18:20:55.301Z,989.9
2022-08-08T18:22:50.486Z,989.9
2022-08-08T18:26:53.468Z,989.9
2022-08-08T18:28:54.454Z,989.9
2022-08-08T18:32:53.827Z,990
2022-08-08T18:34:54.725Z,990
2022-08-08T18:36:55.673Z,990
2022-08-08T18:38:56.983Z,990.1
2022-08-08T18:40:58.660Z,990
2022-08-08T18:42:59.759Z,990.1
2022-08-08T18:45:01.098Z,990
2022-08-08T18:47:02.800Z,990.1
2022-08-08T18:49:04.633Z,990.1
2022-08-08T18:51:17.030Z,990.1
2022-08-08T18:53:07.306Z,990.1
2022-08-08T18:55:09.974Z,990.2
2022-08-08T18:57:11.105Z,990.2
2022-08-08T18:59:11.711Z,990.3
2022-08-08T19:02:14.164Z,990.2
2022-08-08T19:03:14.325Z,990.2
2022-08-08T19:05:15.728Z,990.3
2022-08-08T19:07:17.044Z,990.3
2022-08-08T19:09:18.780Z,990.4
2022-08-08T19:11:22.490Z,990.5
2022-08-08T19:13:24.414Z,990.4
2022-08-08T19:15:23.734Z,990.5
2022-08-08T19:17:53.040Z,990.5
2022-08-08T19:19:24.831Z,990.5
2022-08-08T19:21:30.404Z,990.5
2022-08-08T19:23:28.127Z,990.5
2022-08-08T19:26:02.608Z,990.5
2022-08-08T19:27:56.650Z,990.6
2022-08-08T19:31:35.529Z,990.6
2022-08-08T19:33:39.872Z,990.6
2022-08-08T19:35:44.126Z,990.6
2022-08-08T19:37:42.421Z,990.7
2022-08-08T19:39:39.815Z,990.7
2022-08-08T19:41:40.972Z,990.6
2022-08-08T19:43:56.311Z,990.7
2022-08-08T19:45:57.167Z,990.6
2022-08-08T19:47:45.199Z,990.7
2022-08-08T19:49:59.455Z,990.8
2022-08-08T19:51:49.025Z,990.7
2022-08-08T19:53:52.499Z,990.7
2022-08-08T19:55:50.181Z,990.7
2022-08-08T19:57:51.438Z,990.7
2022-08-08T19:59:52.612Z,990.7
2022-08-08T20:02:01.944Z,990.8
2022-08-08T20:04:00.849Z,990.8
2022-08-08T20:06:13.143Z,990.8
2022-08-08T20:08:30.302Z,990.8
2022-08-08T20:09:58.609Z,990.9
2022-08-08T20:11:59.776Z,990.8
2022-08-08T20:14:10.501Z,990.8
2022-08-08T20:16:02.092Z,990.8
2022-08-08T20:18:03.916Z,990.8
2022-08-08T20:20:04.861Z,990.8
2022-08-08T20:22:12.947Z,990.8
2022-08-08T20:24:07.822Z,990.8
2022-08-08T20:26:07.966Z,990.8
2022-08-08T20:28:08.873Z,990.9
2022-08-08T20:30:09.837Z,990.8
2022-08-08T20:32:13.161Z,990.8
2022-08-08T20:34:28.321Z,990.8
2022-08-08T20:38:15.320Z,990.9
2022-08-08T20:40:17.124Z,990.8
2022-08-08T20:42:18.651Z,990.9
2022-08-08T20:44:19.739Z,990.9
2022-08-08T20:46:21.327Z,990.8
2022-08-08T20:48:26.071Z,991
2022-08-08T20:50:23.477Z,990.9
2022-08-08T20:52:24.445Z,990.9
2022-08-08T20:56:34.867Z,991.1
2022-08-08T20:58:28.513Z,991.1
2022-08-08T21:00:30.375Z,991.2
2022-08-08T21:02:32.028Z,991.1
2022-08-08T21:06:52.235Z,991.2
2022-08-08T21:08:48.692Z,991.1
2022-08-08T21:10:37.795Z,991.2
2022-08-08T21:12:39.127Z,991.2
2022-08-08T21:14:41.021Z,991.2
2022-08-08T21:16:42.340Z,991.2
2022-08-08T21:18:43.653Z,991.2
2022-08-08T21:20:49.259Z,991.2
2022-08-08T21:22:48.603Z,991.2
2022-08-08T21:24:52.441Z,991.3
2022-08-08T21:26:48.534Z,991.3
2022-08-08T21:28:49.760Z,991.2
2022-08-08T21:30:52.224Z,991.2
2022-08-08T21:32:53.630Z,991.2
2022-08-08T21:34:56.481Z,991.2
2022-08-08T21:38:57.401Z,991.2
2022-08-08T21:40:59.075Z,991.2
2022-08-08T21:43:00.605Z,991.3
2022-08-08T21:45:20.782Z,991.3
2022-08-08T21:48:03.041Z,991.3
2022-08-08T21:49:04.192Z,991.3
2022-08-08T21:51:09.473Z,991.3
2022-08-08T21:54:19.788Z,991.4
2022-08-08T21:55:24.424Z,991.4
2022-08-08T21:57:10.498Z,991.4
2022-08-08T21:59:11.915Z,991.3
2022-08-08T22:01:28.372Z,991.4
2022-08-08T22:01:59.870Z,991.3
2022-08-08T22:03:58.100Z,991.4
2022-08-08T22:05:59.736Z,991.4
2022-08-08T22:08:01.105Z,991.4
2022-08-08T22:10:18.052Z,991.4
2022-08-08T22:12:04.981Z,991.4
2022-08-08T22:14:05.528Z,991.4
2022-08-08T22:16:06.720Z,991.3
2022-08-08T22:18:12.146Z,991.3
2022-08-08T22:20:11.687Z,991.4
2022-08-08T22:22:13.094Z,991.4
2022-08-08T22:24:11.788Z,991.4
2022-08-08T22:26:20.142Z,991.3
2022-08-08T22:28:15.101Z,991.4
2022-08-08T22:30:15.852Z,991.4
2022-08-08T22:32:18.039Z,991.4
2022-08-08T22:34:18.801Z,991.4
2022-08-08T22:36:20.083Z,991.4
2022-08-08T22:38:21.235Z,991.4
2022-08-08T22:40:22.803Z,991.4
2022-08-08T22:42:27.694Z,991.4
2022-08-08T22:44:25.555Z,991.4
2022-08-08T22:46:26.933Z,991.4
2022-08-08T22:48:28.340Z,991.5
2022-08-08T22:50:30.105Z,991.5
2022-08-08T22:52:33.301Z,991.4
2022-08-08T22:54:58.616Z,991.5
2022-08-08T22:56:35.098Z,991.5
2022-08-08T22:58:37.963Z,991.4
2022-08-08T23:00:37.703Z,991.4
2022-08-08T23:02:39.044Z,991.4
2022-08-08T23:04:40.276Z,991.4
2022-08-08T23:06:41.192Z,991.4
2022-08-08T23:08:44.735Z,991.5
2022-08-08T23:10:44.374Z,991.5
2022-08-08T23:14:53.378Z,991.5
2022-08-08T23:16:53.262Z,991.5
2022-08-08T23:18:50.795Z,991.4
2022-08-08T23:20:54.691Z,991.5
2022-08-08T23:22:53.215Z,991.5
2022-08-08T23:24:54.699Z,991.4
2022-08-08T23:26:56.407Z,991.6
2022-08-08T23:30:58.963Z,991.6
2022-08-08T23:33:00.679Z,991.6
2022-08-08T23:35:02.199Z,991.6
2022-08-08T23:37:03.763Z,991.6
2022-08-08T23:39:04.766Z,991.5
2022-08-08T23:41:12.345Z,991.5
2022-08-08T23:43:07.613Z,991.5
2022-08-08T23:45:10.259Z,991.5
2022-08-08T23:48:58.374Z,991.5
2022-08-08T23:49:15.719Z,991.4
2022-08-08T23:51:41.765Z,991.4
2022-08-08T23:53:14.472Z,991.5
2022-08-08T23:55:19.689Z,991.5
2022-08-08T23:57:25.719Z,991.4
2022-08-08T23:59:18.744Z,991.4
